createdAt,value
2018-11-28T00:00:47.755Z,1.85
2018-11-28T00:03:14.899Z,1.98
2018-11-28T00:05:41.991Z,1.58
2018-11-28T00:08:27.923Z,1.80
2018-11-28T00:10:54.986Z,1.93
2018-11-28T00:13:22.054Z,1.79
2018-11-28T00:15:49.249Z,1.68
2018-11-28T00:18:16.325Z,1.28
2018-11-28T00:20:43.589Z,1.42
2018-11-28T00:23:10.726Z,1.33
2018-11-28T00:25:38.235Z,1.11
2018-11-28T00:28:05.346Z,1.35
2018-11-28T00:30:32.458Z,1.37
2018-11-28T00:32:59.880Z,1.10
2018-11-28T00:35:26.957Z,0.95
2018-11-28T00:37:54.119Z,0.97
2018-11-28T00:40:22.486Z,0.84
2018-11-28T00:42:49.574Z,0.91
2018-11-28T00:45:18.710Z,0.52
2018-11-28T00:47:46.161Z,0.61
2018-11-28T00:50:15.430Z,0.52
2018-11-28T00:52:42.526Z,0.86
2018-11-28T00:55:14.670Z,0.79
2018-11-28T00:57:42.021Z,0.79
2018-11-28T01:00:16.043Z,0.62
2018-11-28T01:02:43.506Z,0.95
2018-11-28T01:05:11.330Z,0.79
2018-11-28T01:07:38.500Z,0.68
2018-11-28T01:10:08.442Z,0.81
2018-11-28T01:12:35.656Z,0.77
2018-11-28T01:15:02.918Z,0.67
2018-11-28T01:17:30.721Z,0.78
2018-11-28T01:19:58.360Z,0.79
2018-11-28T01:22:25.441Z,0.88
2018-11-28T01:24:52.637Z,0.88
2018-11-28T01:27:20.276Z,0.68
2018-11-28T01:29:47.367Z,0.47
2018-11-28T01:32:14.436Z,0.32
2018-11-28T01:34:41.764Z,0.31
2018-11-28T01:37:08.837Z,0.73
2018-11-28T01:39:35.897Z,0.65
2018-11-28T01:42:03.385Z,0.68
2018-11-28T01:44:30.449Z,0.66
2018-11-28T01:46:57.515Z,0.31
2018-11-28T01:49:24.764Z,0.36
2018-11-28T01:51:51.836Z,0.22
2018-11-28T01:54:18.917Z,0.37
2018-11-28T01:56:46.034Z,0.18
2018-11-28T01:59:13.101Z,0.71
2018-11-28T02:01:40.298Z,0.55
2018-11-28T02:04:07.405Z,0.46
2018-11-28T02:06:34.545Z,0.43
2018-11-28T02:09:01.642Z,0.47
2018-11-28T02:11:28.988Z,0.43
2018-11-28T02:13:56.060Z,0.30
2018-11-28T02:16:23.138Z,0.29
2018-11-28T02:18:50.238Z,0.08
2018-11-28T02:21:17.358Z,0.23
2018-11-28T02:23:44.434Z,0.06
2018-11-28T02:26:11.802Z,0.49
2018-11-28T02:28:38.905Z,0.36
2018-11-28T02:31:05.986Z,0.34
2018-11-28T02:33:33.083Z,0.15
2018-11-28T02:36:00.154Z,0.19
2018-11-28T02:38:27.264Z,0.24
2018-11-28T02:40:54.437Z,0.29
2018-11-28T02:43:21.627Z,0.59
2018-11-28T02:46:52.386Z,0.11
2018-11-28T02:49:19.460Z,0.39
2018-11-28T02:51:46.513Z,0.43
2018-11-28T02:54:13.622Z,0.32
2018-11-28T02:56:40.699Z,0.57
2018-11-28T02:59:07.765Z,0.30
2018-11-28T03:01:42.146Z,0.18
2018-11-28T03:04:09.246Z,0.14
2018-11-28T03:06:36.326Z,0.49
2018-11-28T03:09:05.856Z,0.32
2018-11-28T03:11:32.950Z,0.25
2018-11-28T03:14:00.029Z,0.13
2018-11-28T03:16:27.140Z,0.18
2018-11-28T03:19:00.895Z,0.10
2018-11-28T03:21:28.019Z,0.04
2018-11-28T03:23:55.101Z,0.02
2018-11-28T03:26:22.216Z,0.00
2018-11-28T03:28:49.400Z,0.08
2018-11-28T03:31:16.622Z,0.32
2018-11-28T03:33:44.917Z,-0.19
2018-11-28T03:36:12.004Z,-0.21
2018-11-28T03:38:39.114Z,-0.15
2018-11-28T03:41:06.248Z,-0.06
2018-11-28T03:43:33.381Z,-0.26
2018-11-28T03:46:00.450Z,-0.09
2018-11-28T03:48:27.587Z,-0.19
2018-11-28T03:50:54.679Z,-0.27
2018-11-28T03:53:21.744Z,-0.20
2018-11-28T03:55:49.263Z,-0.15
2018-11-28T03:58:16.362Z,-0.01
2018-11-28T04:00:43.482Z,-0.19
2018-11-28T04:03:10.578Z,-0.33
2018-11-28T04:05:37.787Z,-0.09
2018-11-28T04:08:05.069Z,-0.01
2018-11-28T04:10:32.271Z,-0.03
2018-11-28T04:12:59.677Z,0.04
2018-11-28T04:15:26.768Z,-0.22
2018-11-28T04:17:53.921Z,-0.12
2018-11-28T04:20:21.785Z,-0.49
2018-11-28T04:22:48.913Z,-0.55
2018-11-28T04:25:18.045Z,-0.34
2018-11-28T04:27:45.136Z,-0.52
2018-11-28T04:30:15.464Z,-0.23
2018-11-28T04:32:42.583Z,-0.08
2018-11-28T04:35:12.049Z,-0.19
2018-11-28T04:37:39.150Z,0.02
2018-11-28T04:40:10.304Z,-0.18
2018-11-28T04:42:37.793Z,-0.12
2018-11-28T04:45:06.962Z,-0.10
2018-11-28T04:47:34.041Z,-0.19
2018-11-28T04:50:01.151Z,-0.42
2018-11-28T04:52:28.251Z,-0.67
2018-11-28T04:54:55.318Z,-0.62
2018-11-28T04:57:22.413Z,-0.25
2018-11-28T04:59:49.498Z,0.12
2018-11-28T05:02:16.642Z,0.08
2018-11-28T05:04:43.914Z,-0.24
2018-11-28T05:07:27.078Z,-0.38
2018-11-28T05:09:54.346Z,-0.01
2018-11-28T05:12:21.702Z,-0.11
2018-11-28T05:14:49.031Z,-0.15
2018-11-28T05:17:16.154Z,-0.04
2018-11-28T05:19:43.229Z,0.25
2018-11-28T05:22:10.318Z,0.17
2018-11-28T05:24:37.422Z,0.14
2018-11-28T05:27:04.787Z,0.25
2018-11-28T05:29:31.873Z,-0.04
2018-11-28T05:31:59.034Z,0.07
2018-11-28T05:34:26.112Z,0.02
2018-11-28T05:36:53.239Z,-0.13
2018-11-28T05:39:20.335Z,-0.20
2018-11-28T05:41:47.418Z,-0.26
2018-11-28T05:44:14.496Z,-0.14
2018-11-28T05:46:41.607Z,-0.25
2018-11-28T05:49:08.673Z,-0.38
2018-11-28T05:51:35.915Z,-0.36
2018-11-28T05:54:02.882Z,-0.13
2018-11-28T05:56:29.957Z,-0.36
2018-11-28T05:59:03.901Z,-0.10
2018-11-28T06:04:05.038Z,0.06
2018-11-28T06:06:32.169Z,0.03
2018-11-28T06:08:59.265Z,-0.36
2018-11-28T06:11:26.374Z,-0.38
2018-11-28T06:13:53.462Z,-0.51
2018-11-28T06:16:20.538Z,-0.15
2018-11-28T06:18:47.605Z,0.12
2018-11-28T06:21:14.755Z,-0.45
2018-11-28T06:23:41.853Z,-0.23
2018-11-28T06:26:08.924Z,-0.19
2018-11-28T06:28:36.017Z,-0.30
2018-11-28T06:31:03.106Z,-0.40
2018-11-28T06:33:30.241Z,-0.36
2018-11-28T06:35:57.343Z,-0.38
2018-11-28T06:38:24.411Z,0.22
2018-11-28T06:40:51.650Z,-0.11
2018-11-28T06:43:18.745Z,0.00
2018-11-28T06:45:45.875Z,-0.01
2018-11-28T06:48:12.975Z,0.19
2018-11-28T06:50:40.066Z,-0.02
2018-11-28T06:53:07.195Z,-0.14
2018-11-28T06:55:34.281Z,-0.16
2018-11-28T06:58:01.354Z,0.15
2018-11-28T07:00:28.489Z,0.01
2018-11-28T07:02:55.605Z,-0.29
2018-11-28T07:05:22.971Z,-0.07
2018-11-28T07:07:50.401Z,-0.03
2018-11-28T07:10:18.489Z,-0.20
2018-11-28T07:12:45.650Z,-0.12
2018-11-28T07:15:13.941Z,-0.24
2018-11-28T07:17:41.563Z,-0.35
2018-11-28T07:20:09.838Z,-0.50
2018-11-28T07:22:36.967Z,-0.57
2018-11-28T07:25:06.080Z,-0.63
2018-11-28T07:27:33.167Z,-0.73
2018-11-28T07:30:00.274Z,-0.42
2018-11-28T07:32:27.369Z,-0.38
2018-11-28T07:34:54.450Z,-0.27
2018-11-28T07:37:21.763Z,-0.41
2018-11-28T07:39:48.870Z,-0.59
2018-11-28T07:42:15.958Z,-0.42
2018-11-28T07:44:43.170Z,-0.39
2018-11-28T07:47:10.269Z,-0.50
2018-11-28T07:49:37.353Z,-0.42
2018-11-28T07:52:11.646Z,-0.39
2018-11-28T07:54:38.742Z,-0.33
2018-11-28T07:57:05.816Z,-0.25
2018-11-28T07:59:32.926Z,-0.19
2018-11-28T08:02:00.015Z,-0.15
2018-11-28T08:04:27.111Z,-0.09
2018-11-28T08:06:54.478Z,0.01
2018-11-28T08:09:21.566Z,1.09
2018-11-28T08:11:48.656Z,0.46
2018-11-28T08:14:15.749Z,-0.02
2018-11-28T08:16:42.889Z,0.17
2018-11-28T08:19:09.938Z,-0.44
2018-11-28T08:21:37.080Z,0.02
2018-11-28T08:24:04.602Z,0.15
2018-11-28T08:26:31.674Z,0.20
2018-11-28T08:28:59.067Z,0.27
2018-11-28T08:31:26.146Z,0.09
2018-11-28T08:33:53.243Z,0.07
2018-11-28T08:36:20.478Z,-0.03
2018-11-28T08:38:47.578Z,-0.05
2018-11-28T08:41:14.650Z,0.12
2018-11-28T08:43:41.737Z,0.09
2018-11-28T08:46:09.128Z,0.07
2018-11-28T08:48:36.222Z,0.03
2018-11-28T08:51:03.342Z,-0.02
2018-11-28T08:53:47.836Z,-0.06
2018-11-28T08:56:24.929Z,-0.01
2018-11-28T08:58:52.161Z,0.16
2018-11-28T09:01:19.205Z,0.11
2018-11-28T09:03:46.336Z,0.10
2018-11-28T09:06:13.432Z,0.14
2018-11-28T09:08:40.531Z,0.13
2018-11-28T09:11:07.983Z,0.14
2018-11-28T09:13:35.054Z,0.15
2018-11-28T09:16:02.155Z,0.24
2018-11-28T09:18:29.264Z,0.37
2018-11-28T09:20:56.373Z,0.41
2018-11-28T09:23:23.472Z,0.39
2018-11-28T09:25:50.648Z,0.25
2018-11-28T09:28:17.742Z,0.37
2018-11-28T09:30:44.822Z,0.49
2018-11-28T09:33:11.899Z,0.51
2018-11-28T09:35:38.994Z,0.37
2018-11-28T09:38:06.171Z,0.50
2018-11-28T09:40:33.284Z,0.49
2018-11-28T09:43:00.353Z,0.54
2018-11-28T09:45:27.532Z,0.47
2018-11-28T09:47:54.695Z,0.49
2018-11-28T09:50:23.647Z,0.55
2018-11-28T09:52:51.170Z,0.92
2018-11-28T09:55:20.691Z,0.74
2018-11-28T09:57:47.845Z,0.60
2018-11-28T10:00:20.977Z,0.58
2018-11-28T10:02:49.145Z,0.60
2018-11-28T10:05:18.509Z,0.64
2018-11-28T10:07:45.909Z,0.50
2018-11-28T10:10:13.430Z,0.66
2018-11-28T10:12:40.922Z,0.69
2018-11-28T10:15:16.033Z,0.70
2018-11-28T10:17:43.570Z,0.78
2018-11-28T10:20:11.944Z,0.72
2018-11-28T10:22:39.513Z,0.66
2018-11-28T10:25:08.957Z,0.62
2018-11-28T10:27:36.067Z,0.68
2018-11-28T10:30:03.666Z,0.55
2018-11-28T10:32:30.789Z,0.50
2018-11-28T10:34:57.914Z,0.57
2018-11-28T10:37:25.002Z,0.77
2018-11-28T10:39:52.106Z,0.91
2018-11-28T10:42:19.604Z,0.88
2018-11-28T10:44:46.691Z,0.85
2018-11-28T10:47:13.794Z,0.79
2018-11-28T10:49:41.174Z,0.74
2018-11-28T10:52:08.369Z,0.87
2018-11-28T10:54:36.901Z,0.92
2018-11-28T10:57:05.732Z,0.94
2018-11-28T10:59:32.786Z,0.93
2018-11-28T11:02:05.804Z,0.71
2018-11-28T11:04:38.631Z,0.52
2018-11-28T11:07:11.562Z,0.67
2018-11-28T11:09:44.366Z,1.51
2018-11-28T11:12:17.165Z,0.88
2018-11-28T11:14:46.195Z,0.79
2018-11-28T11:17:13.489Z,0.77
2018-11-28T11:19:40.967Z,0.81
2018-11-28T11:22:08.082Z,0.64
2018-11-28T11:24:35.161Z,0.71
2018-11-28T11:27:02.306Z,0.64
2018-11-28T11:29:29.400Z,0.71
2018-11-28T11:31:56.481Z,0.80
2018-11-28T11:34:23.838Z,0.77
2018-11-28T11:36:50.953Z,0.92
2018-11-28T11:39:18.065Z,0.83
2018-11-28T11:41:45.163Z,1.07
2018-11-28T11:44:12.251Z,1.10
2018-11-28T11:46:39.592Z,1.16
2018-11-28T11:49:06.682Z,1.13
2018-11-28T11:51:33.751Z,1.17
2018-11-28T11:54:00.850Z,0.86
2018-11-28T11:56:28.186Z,0.99
2018-11-28T11:58:55.282Z,0.85
2018-11-28T12:01:22.482Z,0.88
2018-11-28T12:03:49.590Z,0.82
2018-11-28T12:06:16.680Z,0.92
2018-11-28T12:08:43.744Z,0.83
2018-11-28T12:11:10.824Z,1.14
2018-11-28T12:13:38.241Z,1.02
2018-11-28T12:16:05.759Z,1.16
2018-11-28T12:18:32.907Z,1.11
2018-11-28T12:21:01.945Z,1.05
2018-11-28T12:23:29.054Z,2.02
2018-11-28T12:25:56.797Z,1.45
2018-11-28T12:28:23.900Z,1.35
2018-11-28T12:30:51.668Z,1.39
2018-11-28T12:33:18.779Z,1.39
2018-11-28T12:35:45.931Z,1.55
2018-11-28T12:38:13.327Z,1.31
2018-11-28T12:40:40.430Z,1.22
2018-11-28T12:43:09.373Z,1.42
2018-11-28T12:45:38.770Z,1.67
2018-11-28T12:48:05.900Z,1.61
2018-11-28T12:50:33.031Z,2.16
2018-11-28T12:53:01.059Z,2.42
2018-11-28T12:55:29.042Z,3.00
2018-11-28T12:57:56.673Z,3.92
2018-11-28T13:00:26.988Z,3.12
2018-11-28T13:02:54.134Z,2.38
2018-11-28T13:05:23.230Z,2.24
2018-11-28T13:07:50.403Z,1.92
2018-11-28T13:10:19.497Z,1.82
2018-11-28T13:12:47.457Z,1.69
2018-11-28T13:15:16.446Z,1.73
2018-11-28T13:17:43.549Z,1.78
2018-11-28T13:20:13.769Z,1.89
2018-11-28T13:22:41.005Z,1.66
2018-11-28T13:25:09.755Z,1.77
2018-11-28T13:27:36.852Z,1.69
2018-11-28T13:30:11.385Z,1.54
2018-11-28T13:32:39.032Z,1.53
2018-11-28T13:35:06.151Z,1.85
2018-11-28T13:37:33.393Z,1.73
2018-11-28T13:40:00.464Z,1.57
2018-11-28T13:42:27.562Z,1.45
2018-11-28T13:44:54.674Z,1.59
2018-11-28T13:47:22.512Z,1.49
2018-11-28T13:49:49.676Z,1.41
2018-11-28T13:52:16.786Z,1.43
2018-11-28T13:55:37.798Z,1.54
2018-11-28T13:57:11.182Z,1.62
2018-11-28T13:59:38.142Z,1.64
2018-11-28T14:02:05.285Z,1.58
2018-11-28T14:04:32.381Z,1.60
2018-11-28T14:06:59.714Z,1.72
2018-11-28T14:09:26.830Z,1.67
2018-11-28T14:11:53.906Z,1.64
2018-11-28T14:14:20.990Z,1.62
2018-11-28T14:16:48.253Z,1.66
2018-11-28T14:19:15.312Z,1.66
2018-11-28T14:21:42.509Z,1.46
2018-11-28T14:24:09.598Z,1.61
2018-11-28T14:26:36.694Z,1.60
2018-11-28T14:29:04.381Z,1.42
2018-11-28T14:31:31.760Z,1.40
2018-11-28T14:33:58.938Z,1.41
2018-11-28T14:36:26.441Z,1.35
2018-11-28T14:38:53.516Z,1.40
2018-11-28T14:41:20.610Z,1.43
2018-11-28T14:43:48.395Z,1.37
2018-11-28T14:47:01.005Z,1.34
2018-11-28T14:49:28.977Z,1.26
2018-11-28T14:51:56.055Z,1.28
2018-11-28T14:54:23.128Z,1.26
2018-11-28T14:56:50.302Z,1.29
2018-11-28T14:59:17.402Z,1.29
2018-11-28T15:01:44.507Z,1.08
2018-11-28T15:04:12.414Z,1.11
2018-11-28T15:06:53.397Z,1.30
2018-11-28T15:09:27.235Z,1.22
2018-11-28T15:11:54.370Z,1.14
2018-11-28T15:14:21.486Z,1.18
2018-11-28T15:16:48.596Z,1.16
2018-11-28T15:19:15.686Z,1.26
2018-11-28T15:21:42.794Z,1.24
2018-11-28T15:24:09.899Z,1.23
2018-11-28T15:26:37.007Z,1.35
2018-11-28T15:29:04.669Z,1.40
2018-11-28T15:31:31.778Z,1.24
2018-11-28T15:33:58.899Z,1.13
2018-11-28T15:36:25.978Z,1.03
2018-11-28T15:38:53.054Z,1.04
2018-11-28T15:41:20.165Z,1.14
2018-11-28T15:43:47.269Z,1.11
2018-11-28T15:46:15.070Z,1.07
2018-11-28T15:48:41.487Z,1.13
2018-11-28T15:51:08.604Z,1.09
2018-11-28T15:53:35.713Z,1.08
2018-11-28T15:56:02.847Z,1.13
2018-11-28T15:58:29.927Z,1.14
2018-11-28T16:00:57.031Z,1.31
2018-11-28T16:03:24.134Z,1.25
2018-11-28T16:05:51.210Z,1.41
2018-11-28T16:08:18.407Z,1.15
2018-11-28T16:10:45.800Z,1.32
2018-11-28T16:13:14.570Z,1.16
2018-11-28T16:15:47.323Z,1.50
2018-11-28T16:18:14.629Z,1.28
2018-11-28T16:20:41.795Z,1.33
2018-11-28T16:23:08.939Z,1.37
2018-11-28T16:25:36.036Z,1.35
2018-11-28T16:28:03.171Z,1.31
2018-11-28T16:30:30.303Z,1.34
2018-11-28T16:32:57.518Z,1.21
2018-11-28T16:35:25.162Z,1.13
2018-11-28T16:37:52.283Z,0.94
2018-11-28T16:40:19.362Z,0.97
2018-11-28T16:42:46.463Z,0.94
2018-11-28T16:45:15.701Z,0.89
2018-11-28T16:47:43.063Z,0.94
2018-11-28T16:50:11.047Z,1.03
2018-11-28T16:52:38.187Z,1.05
2018-11-28T16:55:06.742Z,0.83
2018-11-28T16:57:33.847Z,0.87
2018-11-28T17:00:01.164Z,0.99
2018-11-28T17:02:28.262Z,0.86
2018-11-28T17:04:55.347Z,0.91
2018-11-28T17:07:22.459Z,0.89
2018-11-28T17:09:49.549Z,0.87
2018-11-28T17:12:16.712Z,0.85
2018-11-28T17:14:43.820Z,0.94
2018-11-28T17:17:10.954Z,0.85
2018-11-28T17:19:38.120Z,0.88
2018-11-28T17:22:05.438Z,0.87
2018-11-28T17:24:33.090Z,0.86
2018-11-28T17:27:01.047Z,0.94
2018-11-28T17:29:29.189Z,0.97
2018-11-28T17:31:56.530Z,0.93
2018-11-28T17:34:24.104Z,0.91
2018-11-28T17:36:51.538Z,0.94
2018-11-28T17:39:18.702Z,0.99
2018-11-28T17:41:46.111Z,1.08
2018-11-28T17:44:13.430Z,0.94
2018-11-28T17:46:41.074Z,1.04
2018-11-28T17:49:08.214Z,1.03
2018-11-28T17:51:35.442Z,0.99
2018-11-28T17:54:02.537Z,1.01
2018-11-28T17:56:29.890Z,1.05
2018-11-28T17:58:56.964Z,0.98
2018-11-28T18:01:24.080Z,0.98
2018-11-28T18:03:51.225Z,0.95
2018-11-28T18:06:18.465Z,0.86
2018-11-28T18:08:45.546Z,0.93
2018-11-28T18:11:14.039Z,1.00
2018-11-28T18:13:41.875Z,0.97
2018-11-28T18:16:09.084Z,1.06
2018-11-28T18:18:36.348Z,1.04
2018-11-28T18:21:03.521Z,0.88
2018-11-28T18:23:30.635Z,0.98
2018-11-28T18:25:57.846Z,1.06
2018-11-28T18:28:25.117Z,1.10
2018-11-28T18:30:52.254Z,1.06
2018-11-28T18:33:19.543Z,1.07
2018-11-28T18:35:46.779Z,1.07
2018-11-28T18:38:13.882Z,1.07
2018-11-28T18:40:40.992Z,1.17
2018-11-28T18:43:08.800Z,1.11
2018-11-28T18:45:40.505Z,1.15
2018-11-28T18:48:07.649Z,1.10
2018-11-28T18:50:34.811Z,1.09
2018-11-28T18:53:01.963Z,1.13
2018-11-28T18:55:29.083Z,1.13
2018-11-28T18:57:56.511Z,1.14
2018-11-28T19:00:25.441Z,1.14
2018-11-28T19:02:53.057Z,1.03
2018-11-28T19:05:20.384Z,1.15
2018-11-28T19:07:48.054Z,1.27
2018-11-28T19:10:18.207Z,1.14
2018-11-28T19:12:45.310Z,1.10
2018-11-28T19:15:14.782Z,1.16
2018-11-28T19:17:42.081Z,1.17
2018-11-28T19:20:11.210Z,1.14
2018-11-28T19:22:38.460Z,1.06
2018-11-28T19:25:07.558Z,1.04
2018-11-28T19:27:34.632Z,1.08
2018-11-28T19:30:02.066Z,1.01
2018-11-28T19:32:29.241Z,1.09
2018-11-28T19:34:56.348Z,1.21
2018-11-28T19:37:23.730Z,1.17
2018-11-28T19:39:50.828Z,1.24
2018-11-28T19:42:17.911Z,1.42
2018-11-28T19:44:44.989Z,1.27
2018-11-28T19:47:12.135Z,1.25
2018-11-28T19:49:39.467Z,1.24
2018-11-28T19:52:06.681Z,1.21
2018-11-28T19:54:33.923Z,1.25
2018-11-28T19:57:01.062Z,1.18
2018-11-28T19:59:28.188Z,1.22
2018-11-28T20:01:55.274Z,1.22
2018-11-28T20:04:22.422Z,1.15
2018-11-28T20:06:49.583Z,1.18
2018-11-28T20:09:18.729Z,1.21
2018-11-28T20:11:45.836Z,1.16
2018-11-28T20:14:12.926Z,1.19
2018-11-28T20:16:40.174Z,1.17
2018-11-28T20:19:07.406Z,1.17
2018-11-28T20:21:34.494Z,1.23
2018-11-28T20:24:01.747Z,1.24
2018-11-28T20:26:28.999Z,1.15
2018-11-28T20:28:56.089Z,1.15
2018-11-28T20:31:23.207Z,1.23
2018-11-28T20:33:50.443Z,1.19
2018-11-28T20:36:17.538Z,1.22
2018-11-28T20:38:44.815Z,1.18
2018-11-28T20:41:11.830Z,1.19
2018-11-28T20:43:38.933Z,1.16
2018-11-28T20:46:06.921Z,1.17
2018-11-28T20:48:34.195Z,1.19
2018-11-28T20:51:01.286Z,2.32
2018-11-28T20:53:28.477Z,2.06
2018-11-28T20:55:55.576Z,1.79
2018-11-28T20:58:22.813Z,1.74
2018-11-28T21:00:50.085Z,2.45
2018-11-28T21:03:17.179Z,1.52
2018-11-28T21:05:44.278Z,1.34
2018-11-28T21:08:11.507Z,1.39
2018-11-28T21:10:40.335Z,1.32
2018-11-28T21:13:09.613Z,1.22
2018-11-28T21:15:36.790Z,1.26
2018-11-28T21:18:04.353Z,1.26
2018-11-28T21:20:31.669Z,1.16
2018-11-28T21:23:00.132Z,1.14
2018-11-28T21:25:27.398Z,1.14
2018-11-28T21:27:54.785Z,1.14
2018-11-28T21:30:21.929Z,1.11
2018-11-28T21:32:50.926Z,1.36
2018-11-28T21:35:20.591Z,1.18
2018-11-28T21:37:47.662Z,1.23
2018-11-28T21:40:14.813Z,1.28
2018-11-28T21:42:41.935Z,1.16
2018-11-28T21:45:13.201Z,1.09
2018-11-28T21:47:40.328Z,1.11
2018-11-28T21:50:10.078Z,1.10
2018-11-28T21:52:37.153Z,1.10
2018-11-28T21:55:05.670Z,1.13
2018-11-28T21:57:33.557Z,1.14
2018-11-28T22:00:00.638Z,1.16
2018-11-28T22:02:28.405Z,1.16
2018-11-28T22:04:55.212Z,1.24
2018-11-28T22:07:22.626Z,1.24
2018-11-28T22:09:50.005Z,1.27
2018-11-28T22:12:17.157Z,1.26
2018-11-28T22:14:44.354Z,1.31
2018-11-28T22:17:11.446Z,1.25
2018-11-28T22:19:38.583Z,1.19
2018-11-28T22:22:05.707Z,1.19
2018-11-28T22:24:33.113Z,1.26
2018-11-28T22:27:00.190Z,1.43
2018-11-28T22:29:27.657Z,1.41
2018-11-28T22:31:55.175Z,1.50
2018-11-28T22:34:22.273Z,1.60
2018-11-28T22:36:49.368Z,1.55
2018-11-28T22:39:16.485Z,1.51
2018-11-28T22:41:43.602Z,1.63
2018-11-28T22:44:10.694Z,1.57
2018-11-28T22:49:11.895Z,1.60
2018-11-28T22:51:39.150Z,1.55
2018-11-28T22:54:06.509Z,1.57
2018-11-28T22:56:33.610Z,1.61
2018-11-28T22:59:00.809Z,1.58
2018-11-28T23:01:37.247Z,1.47
2018-11-28T23:04:04.752Z,1.50
2018-11-28T23:06:32.253Z,1.52
2018-11-28T23:08:59.482Z,1.49
2018-11-28T23:11:26.574Z,1.48
2018-11-28T23:13:53.697Z,1.54
2018-11-28T23:16:20.775Z,1.51
2018-11-28T23:18:47.856Z,1.60
2018-11-28T23:21:15.297Z,1.55
2018-11-28T23:23:42.381Z,1.54
2018-11-28T23:26:09.502Z,1.60
2018-11-28T23:28:36.601Z,1.62
2018-11-28T23:31:03.949Z,1.73
2018-11-28T23:33:31.013Z,2.31
2018-11-28T23:35:58.481Z,2.03
2018-11-28T23:38:25.549Z,2.49
2018-11-28T23:40:52.629Z,2.75
2018-11-28T23:43:19.905Z,2.88
2018-11-28T23:45:47.009Z,2.71
2018-11-28T23:48:14.094Z,2.50
2018-11-28T23:50:41.170Z,2.92
2018-11-28T23:53:08.249Z,2.79
2018-11-28T23:55:35.348Z,2.52
2018-11-28T23:58:02.430Z,2.55
